Time;durP1;ratioP1;P1;durP2;ratioP2;P2;SDS_P1;SDS_P2;PMS_P1;PMS_P2;Temp;Humidity;BMP_temperature;BMP_pressure;BME280_temperature;BME280_humidity;BME280_pressure;Samples;Min_cycle;Max_cycle;Signal;HPM_P1;HPM_P2
2021/12/09 00:00:59;;;;;;;9.90;4.10;;;;;;;-1.02;100.00;99690.09;5090046;28;20040;-77
2021/12/09 00:03:27;;;;;;;7.05;3.10;;;;;;;-1.04;100.00;99684.84;5093957;28;20030;-76
2021/12/09 00:05:55;;;;;;;8.70;3.70;;;;;;;-1.03;100.00;99692.00;5095729;28;20387;-76
2021/12/09 00:08:21;;;;;;;7.07;3.78;;;;;;;-1.05;100.00;99691.38;5102942;28;20737;-76
2021/12/09 00:10:46;;;;;;;10.15;4.13;;;;;;;-1.08;100.00;99691.03;5068140;28;20397;-77
2021/12/09 00:13:12;;;;;;;8.13;3.80;;;;;;;-1.05;100.00;99683.22;5093222;28;20384;-76
2021/12/09 00:15:37;;;;;;;7.28;3.22;;;;;;;-1.06;100.00;99669.81;5079130;28;20396;-77
2021/12/09 00:18:03;;;;;;;5.32;2.97;;;;;;;-1.08;100.00;99674.69;5077711;28;20061;-76
2021/12/09 00:20:29;;;;;;;8.82;3.08;;;;;;;-1.10;100.00;99685.00;5103748;28;20043;-76
2021/12/09 00:22:54;;;;;;;6.13;3.05;;;;;;;-1.09;100.00;99675.75;5096991;28;20028;-76
2021/12/09 00:25:20;;;;;;;11.32;3.47;;;;;;;-1.09;100.00;99687.47;5078130;28;20097;-77
2021/12/09 00:27:45;;;;;;;10.38;3.20;;;;;;;-1.07;100.00;99681.78;5062597;28;20040;-76
2021/12/09 00:30:11;;;;;;;5.68;2.58;;;;;;;-1.09;100.00;99692.09;5090242;28;20043;-76
2021/12/09 00:32:37;;;;;;;6.40;2.83;;;;;;;-1.12;100.00;99699.66;5045175;28;20032;-76
2021/12/09 00:35:04;;;;;;;7.03;3.28;;;;;;;-1.14;100.00;99692.81;5076137;28;20032;-76
2021/12/09 00:37:37;;;;;;;7.03;2.85;;;;;;;-1.15;100.00;99694.69;5094075;28;20496;-77
2021/12/09 00:40:03;;;;;;;6.88;3.40;;;;;;;-1.18;100.00;99706.06;5092338;28;20062;-76
2021/12/09 00:42:29;;;;;;;11.75;3.35;;;;;;;-1.16;100.00;99703.13;5097859;28;20036;-76
2021/12/09 00:44:55;;;;;;;7.38;3.25;;;;;;;-1.20;100.00;99701.91;5096258;28;20036;-76
2021/12/09 00:47:21;;;;;;;5.97;3.10;;;;;;;-1.19;100.00;99701.69;5071151;28;20501;-76
2021/12/09 00:49:46;;;;;;;5.25;3.05;;;;;;;-1.21;100.00;99701.09;5075665;28;20463;-77
2021/12/09 00:52:12;;;;;;;6.57;3.33;;;;;;;-1.21;100.00;99701.09;5077611;28;20036;-76
2021/12/09 00:54:39;;;;;;;6.50;2.88;;;;;;;-1.22;100.00;99702.19;5103561;28;20030;-77
2021/12/09 00:57:05;;;;;;;9.43;3.22;;;;;;;-1.21;100.00;99698.38;5094617;28;20028;-76
2021/12/09 00:59:30;;;;;;;6.75;3.08;;;;;;;-1.21;100.00;99703.00;5073844;28;20054;-76
2021/12/09 01:01:56;;;;;;;8.25;2.92;;;;;;;-1.24;100.00;99698.84;5073178;28;20029;-76
2021/12/09 01:04:21;;;;;;;8.88;3.13;;;;;;;-1.24;100.00;99695.31;5051324;28;20032;-76
2021/12/09 01:06:48;;;;;;;8.40;3.03;;;;;;;-1.25;100.00;99705.38;5103243;28;20036;-77
2021/12/09 01:09:14;;;;;;;7.82;2.95;;;;;;;-1.23;100.00;99710.56;5078854;28;20043;-76
2021/12/09 01:11:39;;;;;;;7.15;3.50;;;;;;;-1.25;100.00;99710.81;5099597;28;20876;-77
2021/12/09 01:14:05;;;;;;;6.63;3.20;;;;;;;-1.25;100.00;99715.44;5078950;28;20366;-76
2021/12/09 01:16:30;;;;;;;7.40;3.28;;;;;;;-1.27;100.00;99712.13;5098713;28;20379;-76
2021/12/09 01:18:57;;;;;;;7.43;3.30;;;;;;;-1.28;100.00;99722.19;5098574;28;20372;-77
2021/12/09 01:21:22;;;;;;;8.15;3.10;;;;;;;-1.28;100.00;99719.47;5080970;28;20741;-77
2021/12/09 01:23:47;;;;;;;8.30;3.63;;;;;;;-1.30;100.00;99727.03;5096000;28;20398;-77
2021/12/09 01:26:13;;;;;;;7.17;3.10;;;;;;;-1.28;100.00;99721.34;5098222;28;20797;-76
2021/12/09 01:28:51;;;;;;;7.13;3.10;;;;;;;-1.30;100.00;99724.31;5106689;28;20411;-77
2021/12/09 01:31:27;;;;;;;6.03;2.60;;;;;;;-1.28;100.00;99730.38;5092065;28;20062;-76
2021/12/09 01:33:54;;;;;;;6.03;2.50;;;;;;;-1.26;100.00;99724.66;5105207;28;20106;-76
2021/12/09 01:36:20;;;;;;;7.07;2.97;;;;;;;-1.31;100.00;99721.81;5100479;28;20497;-76
2021/12/09 01:38:46;;;;;;;6.55;2.72;;;;;;;-1.36;100.00;99731.53;5083644;28;20020;-76
2021/12/09 01:41:11;;;;;;;6.28;2.47;;;;;;;-1.36;100.00;99736.16;5100700;28;20032;-77
2021/12/09 01:43:37;;;;;;;5.25;2.92;;;;;;;-1.37;100.00;99737.22;5088184;28;20078;-77
2021/12/09 01:46:10;;;;;;;5.68;2.70;;;;;;;-1.39;100.00;99732.00;5086326;28;20069;-76
2021/12/09 01:48:35;;;;;;;5.38;2.70;;;;;;;-1.41;100.00;99736.03;5084834;28;20511;-77
2021/12/09 01:51:01;;;;;;;5.32;2.30;;;;;;;-1.40;100.00;99734.97;5069508;28;20024;-77
2021/12/09 01:53:26;;;;;;;6.78;2.47;;;;;;;-1.46;100.00;99736.72;5110746;28;20444;-76
2021/12/09 01:55:54;;;;;;;5.88;2.50;;;;;;;-1.42;100.00;99735.22;5087565;28;20035;-77
2021/12/09 01:58:20;;;;;;;5.93;2.35;;;;;;;-1.48;100.00;99738.84;5085707;28;20024;-77
2021/12/09 02:00:45;;;;;;;7.10;2.80;;;;;;;-1.48;100.00;99732.56;5080242;28;20032;-77
2021/12/09 02:03:11;;;;;;;6.88;2.47;;;;;;;-1.53;100.00;99743.34;5100057;28;21207;-76
2021/12/09 02:05:40;;;;;;;6.90;3.13;;;;;;;-1.55;100.00;99746.31;5098017;28;20039;-76
2021/12/09 02:08:07;;;;;;;5.75;2.47;;;;;;;-1.56;100.00;99752.81;5091110;28;20119;-76
2021/12/09 02:10:33;;;;;;;5.65;2.70;;;;;;;-1.59;100.00;99755.97;5103332;28;20472;-76
2021/12/09 02:12:58;;;;;;;5.80;2.80;;;;;;;-1.60;100.00;99757.88;5071666;28;20079;-77
2021/12/09 02:15:25;;;;;;;6.60;2.30;;;;;;;-1.58;100.00;99752.22;5085736;28;20024;-77
2021/12/09 02:17:50;;;;;;;6.80;2.50;;;;;;;-1.60;100.00;99754.34;5103270;28;20050;-77
2021/12/09 02:20:16;;;;;;;6.25;2.58;;;;;;;-1.64;100.00;99756.69;5073696;28;20028;-76
2021/12/09 02:22:46;;;;;;;7.97;2.85;;;;;;;-1.64;100.00;99762.16;5080192;28;20040;-76
2021/12/09 02:25:13;;;;;;;10.23;2.75;;;;;;;-1.68;100.00;99760.13;5098093;28;20102;-76
2021/12/09 02:27:39;;;;;;;5.50;2.40;;;;;;;-1.66;100.00;99760.72;5098791;28;20048;-76
2021/12/09 02:30:05;;;;;;;6.65;2.75;;;;;;;-1.70;100.00;99762.22;5078096;28;20024;-76
2021/12/09 02:32:30;;;;;;;8.23;3.20;;;;;;;-1.69;100.00;99770.19;5105164;28;20035;-76
2021/12/09 02:34:55;;;;;;;8.52;3.42;;;;;;;-1.70;100.00;99779.41;5063872;28;20477;-76
2021/12/09 02:37:21;;;;;;;6.45;2.58;;;;;;;-1.75;100.00;99768.38;5070200;28;20021;-77
2021/12/09 02:39:47;;;;;;;11.98;3.53;;;;;;;-1.76;100.00;99774.88;5064136;28;20033;-76
2021/12/09 02:42:12;;;;;;;8.15;3.05;;;;;;;-1.78;100.00;99765.28;5105759;28;20383;-77
2021/12/09 02:44:40;;;;;;;9.73;3.70;;;;;;;-1.76;100.00;99752.28;5103499;28;20720;-76
2021/12/09 02:47:05;;;;;;;6.55;2.78;;;;;;;-1.77;100.00;99758.78;5103403;28;20085;-76
2021/12/09 02:49:31;;;;;;;;;;;;;;;-1.79;100.00;99761.72;5090612;28;20035;-78
2021/12/09 02:51:58;;;;;;;7.20;2.78;;;;;;;-1.82;100.00;99760.31;5102476;28;20356;-77
2021/12/09 02:54:24;;;;;;;6.97;2.95;;;;;;;-1.80;100.00;99757.34;5079014;28;20084;-76
2021/12/09 02:56:58;;;;;;;7.70;2.92;;;;;;;-1.81;100.00;99756.53;5094734;28;20051;-77
2021/12/09 02:59:23;;;;;;;;;;;;;;;-1.84;100.00;99762.44;5067113;28;20476;-76
2021/12/09 03:01:57;;;;;;;8.27;2.85;;;;;;;-1.84;100.00;99761.59;5095194;28;20045;-76
2021/12/09 03:04:47;;;;;;;11.02;3.08;;;;;;;-1.87;100.00;99756.59;5082317;28;20047;-77
2021/12/09 03:07:28;;;;;;;4.85;2.70;;;;;;;-1.88;100.00;99760.41;5058735;28;20028;-77
2021/12/09 03:09:56;;;;;;;4.88;2.85;;;;;;;-1.90;100.00;99767.97;5091101;28;20460;-76
2021/12/09 03:12:26;;;;;;;10.25;3.92;;;;;;;-1.94;100.00;99767.59;5065093;28;20429;-76
2021/12/09 03:14:52;;;;;;;9.82;3.92;;;;;;;-1.92;100.00;99775.53;5081245;28;20035;-77
2021/12/09 03:17:18;;;;;;;12.45;3.97;;;;;;;-1.91;100.00;99777.19;5071328;28;20028;-76
2021/12/09 03:19:44;;;;;;;12.10;4.07;;;;;;;-1.91;100.00;99772.56;5101880;28;20039;-77
2021/12/09 03:22:09;;;;;;;9.52;3.78;;;;;;;-1.91;100.00;99772.56;5044079;28;20028;-77
2021/12/09 03:24:35;;;;;;;9.60;3.83;;;;;;;-1.91;100.00;99774.47;5066873;28;20031;-77
2021/12/09 03:27:00;;;;;;;10.65;3.70;;;;;;;-1.93;100.00;99773.88;5082099;28;20031;-76
2021/12/09 03:29:27;;;;;;;10.68;3.70;;;;;;;-1.94;100.00;99770.31;5057182;28;20566;-77
2021/12/09 03:31:54;;;;;;;10.15;3.22;;;;;;;-1.94;100.00;99773.03;5076943;28;20032;-76
2021/12/09 03:34:20;;;;;;;10.40;3.35;;;;;;;-1.93;100.00;99762.97;5098497;28;20107;-76
2021/12/09 03:36:47;;;;;;;9.15;3.10;;;;;;;-1.96;100.00;99769.72;5079594;28;20059;-77
2021/12/09 03:39:16;;;;;;;8.63;3.10;;;;;;;-1.96;100.00;99760.72;5079006;28;20089;-76
2021/12/09 03:41:42;;;;;;;12.07;3.58;;;;;;;-1.98;100.00;99760.94;5104262;28;20032;-76
2021/12/09 03:44:07;;;;;;;6.75;3.00;;;;;;;-2.02;100.00;99762.47;5091242;28;20058;-76
2021/12/09 03:46:33;;;;;;;13.35;2.95;;;;;;;-2.02;100.00;99754.31;5078592;28;20020;-76
2021/12/09 03:48:58;;;;;;;7.43;3.03;;;;;;;-2.04;100.00;99759.16;5075253;28;20516;-76
2021/12/09 03:51:24;;;;;;;10.85;3.15;;;;;;;-2.04;100.00;99757.25;5105211;28;20507;-76
2021/12/09 03:53:51;;;;;;;7.75;2.72;;;;;;;-2.05;100.00;99761.03;5080442;28;20035;-76
2021/12/09 03:56:17;;;;;;;10.05;2.60;;;;;;;-2.05;100.00;99763.75;5074722;28;20028;-76
2021/12/09 03:58:43;;;;;;;7.57;2.67;;;;;;;-2.05;100.00;99761.03;5059258;28;20543;-76
2021/12/09 04:01:08;;;;;;;4.95;2.55;;;;;;;-2.06;100.00;99759.38;5080703;28;20031;-76
2021/12/09 04:03:34;;;;;;;8.35;2.70;;;;;;;-2.04;100.00;99772.75;5106360;28;20045;-76
2021/12/09 04:05:59;;;;;;;9.52;3.03;;;;;;;-2.05;100.00;99771.94;5089567;28;20035;-76
2021/12/09 04:08:24;;;;;;;11.48;5.70;;;;;;;-2.03;100.00;99771.72;5079513;28;20028;-76
2021/12/09 04:10:50;;;;;;;10.18;5.88;;;;;;;-2.04;100.00;99770.03;5076454;28;20025;-76
2021/12/09 04:13:17;;;;;;;12.32;5.43;;;;;;;-2.05;100.00;99776.53;5086688;28;20036;-76
2021/12/09 04:15:42;;;;;;;11.85;5.20;;;;;;;-2.05;100.00;99781.97;5079150;28;20072;-76
2021/12/09 04:18:09;;;;;;;10.82;5.47;;;;;;;-2.04;100.00;99789.91;5086001;28;20024;-76
2021/12/09 04:20:34;;;;;;;7.70;4.15;;;;;;;-2.05;100.00;99781.97;5078449;28;20040;-76
2021/12/09 04:23:00;;;;;;;8.25;4.50;;;;;;;-2.04;100.00;99778.19;5056811;28;20037;-76
2021/12/09 04:25:25;;;;;;;11.13;4.32;;;;;;;-2.05;100.00;99777.38;5080225;28;20085;-76
2021/12/09 04:27:53;;;;;;;7.90;3.80;;;;;;;-2.06;100.00;99781.16;5086680;28;20044;-76
2021/12/09 04:30:19;;;;;;;12.82;3.80;;;;;;;-2.04;100.00;99781.75;5041181;28;20063;-76
2021/12/09 04:32:45;;;;;;;7.95;3.63;;;;;;;-2.05;100.00;99784.72;5077545;28;20028;-76
2021/12/09 04:35:11;;;;;;;9.52;3.42;;;;;;;-2.06;100.00;99775.72;5070323;28;20081;-77
2021/12/09 04:37:36;;;;;;;4.63;3.13;;;;;;;-2.05;100.00;99768.38;5056572;28;20021;-76
2021/12/09 04:40:04;;;;;;;8.65;3.03;;;;;;;-2.06;100.00;99772.16;5086752;28;20036;-76
2021/12/09 04:42:29;;;;;;;9.65;3.00;;;;;;;-2.05;100.00;99758.31;5082595;28;20031;-76
2021/12/09 04:44:55;;;;;;;10.80;3.70;;;;;;;-2.09;100.00;99759.84;5095217;28;20032;-76
2021/12/09 04:47:20;;;;;;;9.15;2.88;;;;;;;-2.06;100.00;99751.22;5069156;28;20500;-76
2021/12/09 04:49:46;;;;;;;6.97;2.75;;;;;;;-2.04;100.00;99756.44;5098277;28;20031;-76
2021/12/09 04:52:11;;;;;;;8.95;2.65;;;;;;;-2.07;100.00;99760.44;5077933;28;20088;-76
2021/12/09 04:54:41;;;;;;;9.57;2.58;;;;;;;-2.06;100.00;99766.72;5047764;28;20032;-76
2021/12/09 04:57:06;;;;;;;9.55;2.58;;;;;;;-2.06;100.00;99761.28;5084060;28;20028;-76
2021/12/09 04:59:32;;;;;;;6.63;2.90;;;;;;;-2.06;100.00;99772.16;5106035;28;20157;-76
2021/12/09 05:01:57;;;;;;;5.18;2.28;;;;;;;-2.06;100.00;99770.28;5098639;28;20040;-76
2021/12/09 05:04:23;;;;;;;5.90;2.35;;;;;;;-2.06;100.00;99767.56;5079816;28;20157;-76
2021/12/09 05:06:48;;;;;;;8.25;2.95;;;;;;;-2.04;100.00;99770.84;5077805;28;20028;-76
2021/12/09 05:09:17;;;;;;;9.90;3.00;;;;;;;-2.05;100.00;99773.81;5071708;28;20481;-76
2021/12/09 05:14:09;;;;;;;8.98;2.83;;;;;;;-2.04;100.00;99778.19;5104813;28;20032;-76
2021/12/09 05:16:34;;;;;;;6.13;2.60;;;;;;;-2.07;100.00;99778.66;5096475;28;20039;-76
2021/12/09 05:19:00;;;;;;;7.72;2.63;;;;;;;-2.03;100.00;99788.88;5075848;28;20379;-76
2021/12/09 05:21:36;;;;;;;10.40;2.72;;;;;;;-2.04;100.00;99789.06;5104760;28;20063;-76
2021/12/09 05:24:05;;;;;;;7.82;2.50;;;;;;;-2.06;100.00;99780.34;5072797;28;20055;-76
2021/12/09 05:26:37;;;;;;;8.95;3.05;;;;;;;-2.06;100.00;99783.88;5075597;28;20488;-76
2021/12/09 05:29:03;;;;;;;;;;;;;;;-2.07;100.00;99778.66;5088261;28;20112;-76
2021/12/09 05:34:13;;;;;;;8.00;2.70;;;;;;;-2.06;100.00;99785.78;5091723;28;20604;-76
2021/12/09 05:36:38;;;;;;;8.63;2.38;;;;;;;-2.05;100.00;99793.69;5065359;28;20032;-76
2021/12/09 05:39:06;;;;;;;9.57;2.70;;;;;;;-2.05;100.00;99787.44;5074582;28;20161;-77
2021/12/09 05:41:32;;;;;;;7.97;2.78;;;;;;;-2.06;100.00;99802.09;5075353;28;20365;-77
2021/12/09 05:44:00;;;;;;;12.85;2.83;;;;;;;-2.05;100.00;99793.69;5077179;28;20444;-76
2021/12/09 05:46:25;;;;;;;10.75;3.05;;;;;;;-2.08;100.00;99785.16;5077291;28;20448;-76
2021/12/09 05:48:50;;;;;;;4.93;2.53;;;;;;;-2.10;100.00;99790.81;5094115;28;20036;-76
2021/12/09 05:51:16;;;;;;;6.95;3.00;;;;;;;-2.10;100.00;99788.09;5103395;28;20027;-76
2021/12/09 05:53:41;;;;;;;7.30;2.55;;;;;;;-2.11;100.00;99785.63;5095033;28;20056;-76
2021/12/09 05:56:07;;;;;;;7.95;3.00;;;;;;;-2.14;100.00;99789.63;5096792;28;20028;-76
2021/12/09 05:58:32;;;;;;;9.75;2.88;;;;;;;-2.11;100.00;99789.16;5090670;28;20028;-76
2021/12/09 06:00:58;;;;;;;12.48;3.22;;;;;;;-2.12;100.00;99783.94;5073881;28;20044;-76
2021/12/09 06:03:23;;;;;;;6.07;2.58;;;;;;;-2.12;100.00;99782.06;5088836;28;20637;-76
2021/12/09 06:05:49;;;;;;;8.18;2.45;;;;;;;-2.15;100.00;99787.13;5082616;28;20157;-76
2021/12/09 06:08:15;;;;;;;11.48;3.08;;;;;;;-2.14;100.00;99783.38;5063213;28;20032;-76
2021/12/09 06:10:40;;;;;;;5.00;2.28;;;;;;;-2.16;100.00;99783.59;5108968;28;20059;-76
2021/12/09 06:13:06;;;;;;;8.15;2.60;;;;;;;-2.17;100.00;99783.78;5111009;28;20568;-76
2021/12/09 06:15:32;;;;;;;6.88;2.47;;;;;;;-2.18;100.00;99785.69;5102350;28;20028;-76
2021/12/09 06:17:57;;;;;;;6.47;2.53;;;;;;;-2.18;100.00;99780.25;5083028;28;20016;-76
2021/12/09 06:20:24;;;;;;;6.85;2.20;;;;;;;-2.19;100.00;99780.50;5109247;28;20035;-76
2021/12/09 06:22:50;;;;;;;8.73;2.33;;;;;;;-2.21;100.00;99783.44;5080514;28;20611;-76
2021/12/09 06:25:18;;;;;;;6.50;2.47;;;;;;;-2.22;100.00;99787.22;5097535;28;20024;-77
2021/12/09 06:27:45;;;;;;;7.15;2.30;;;;;;;-2.16;100.00;99790.91;5072688;28;20063;-76
2021/12/09 06:30:11;;;;;;;5.28;2.42;;;;;;;-2.20;100.00;99779.66;5074277;28;20029;-76
2021/12/09 06:32:36;;;;;;;5.47;2.55;;;;;;;-2.16;100.00;99780.03;5087336;28;20028;-76
2021/12/09 06:35:04;;;;;;;8.25;2.88;;;;;;;-2.18;100.00;99782.97;5062381;28;20039;-77
2021/12/09 06:37:30;;;;;;;6.15;2.38;;;;;;;-2.17;100.00;99783.78;5053988;28;20830;-76
2021/12/09 06:39:55;;;;;;;6.25;2.47;;;;;;;-2.21;100.00;99774.44;5066665;28;20023;-76
2021/12/09 06:42:21;;;;;;;7.50;2.92;;;;;;;-2.18;100.00;99780.25;5066418;28;20414;-76
2021/12/09 06:44:46;;;;;;;9.40;2.58;;;;;;;-2.22;100.00;99773.63;5080204;28;20039;-76
2021/12/09 06:47:12;;;;;;;10.85;2.70;;;;;;;-2.24;100.00;99775.72;5048641;28;20035;-76
2021/12/09 06:49:37;;;;;;;8.48;2.70;;;;;;;-2.23;100.00;99785.53;5067982;28;20076;-76
2021/12/09 06:52:03;;;;;;;9.15;2.72;;;;;;;-2.24;100.00;99789.34;5068894;28;20019;-76
2021/12/09 06:54:29;;;;;;;9.35;2.30;;;;;;;-2.27;100.00;99789.78;5061587;28;20065;-76
2021/12/09 06:56:54;;;;;;;6.38;2.55;;;;;;;-2.29;100.00;99784.56;5077484;28;20028;-76
2021/12/09 06:59:20;;;;;;;8.40;1.98;;;;;;;-2.27;100.00;99784.34;5085342;28;20042;-76
2021/12/09 07:01:45;;;;;;;8.43;2.40;;;;;;;-2.25;100.00;99783.06;5096787;28;20098;-76
2021/12/09 07:04:11;;;;;;;9.02;2.67;;;;;;;-2.29;100.00;99781.84;5062163;28;20543;-76
2021/12/09 07:06:37;;;;;;;8.90;2.50;;;;;;;-2.28;100.00;99793.56;5079731;28;20036;-76
2021/12/09 07:09:04;;;;;;;10.48;2.30;;;;;;;-2.27;100.00;99795.22;5086189;28;20035;-76
2021/12/09 07:11:31;;;;;;;8.23;2.70;;;;;;;-2.28;100.00;99790.84;5075060;28;20066;-76
2021/12/09 07:13:56;;;;;;;6.40;2.22;;;;;;;-2.25;100.00;99790.41;5076418;28;20023;-76
2021/12/09 07:16:22;;;;;;;9.07;2.20;;;;;;;-2.27;100.00;99790.63;5086569;28;20088;-75
2021/12/09 07:18:48;;;;;;;6.70;2.38;;;;;;;-2.16;100.00;99794.47;5097431;28;20036;-75
2021/12/09 07:21:13;;;;;;;8.27;2.42;;;;;;;-2.07;100.00;99800.41;5095560;28;20449;-76
2021/12/09 07:23:39;;;;;;;8.30;2.50;;;;;;;-2.07;100.00;99794.97;5077252;28;20035;-76
2021/12/09 07:26:04;;;;;;;11.30;2.40;;;;;;;-2.06;100.00;99792.03;5079436;28;20082;-76
2021/12/09 07:28:30;;;;;;;7.93;2.38;;;;;;;-2.05;100.00;99793.69;5079018;28;20040;-76
2021/12/09 07:30:55;;;;;;;6.88;2.40;;;;;;;-2.04;100.00;99798.06;5103281;28;20032;-77
2021/12/09 07:33:21;;;;;;;8.95;2.40;;;;;;;-2.01;100.00;99788.63;5093799;28;20032;-76
2021/12/09 07:35:46;;;;;;;6.28;2.45;;;;;;;-1.98;100.00;99790.88;5096224;28;20028;-76
2021/12/09 07:38:12;;;;;;;10.27;2.47;;;;;;;-1.97;100.00;99797.19;5084140;28;20116;-76
2021/12/09 07:40:39;;;;;;;8.63;2.58;;;;;;;-1.95;100.00;99797.75;5078498;28;20052;-76
2021/12/09 07:43:05;;;;;;;9.23;2.50;;;;;;;-1.92;100.00;99791.84;5088808;28;20039;-76
2021/12/09 07:45:30;;;;;;;8.63;2.58;;;;;;;-1.89;100.00;99797.69;5080464;28;20494;-76
2021/12/09 07:47:56;;;;;;;8.77;2.38;;;;;;;-1.86;100.00;99788.22;5063163;28;20055;-76
2021/12/09 07:50:23;;;;;;;9.20;3.08;;;;;;;-1.83;100.00;99791.31;5072566;28;20062;-76
2021/12/09 07:52:50;;;;;;;8.15;2.63;;;;;;;-1.80;100.00;99787.31;5076316;28;20485;-75
2021/12/09 07:55:16;;;;;;;7.32;2.70;;;;;;;-1.70;100.00;99776.69;5066842;28;20115;-74
2021/12/09 07:57:42;;;;;;;10.27;3.42;;;;;;;-1.62;100.00;99775.50;5068978;28;20026;-74
2021/12/09 08:00:28;;;;;;;5.47;2.40;;;;;;;-1.59;100.00;99778.63;5067959;28;20077;-74
2021/12/09 08:02:54;;;;;;;8.18;2.60;;;;;;;-1.52;100.00;99774.97;5061094;28;20118;-74
2021/12/09 08:05:20;;;;;;;12.00;2.70;;;;;;;-1.46;100.00;99774.84;5095399;28;20084;-75
2021/12/09 08:07:45;;;;;;;9.20;2.60;;;;;;;-1.39;100.00;99775.59;5087908;28;20487;-74
2021/12/09 08:10:15;;;;;;;14.85;3.08;;;;;;;-1.33;100.00;99779.28;5098513;28;20028;-73
2021/12/09 08:12:40;;;;;;;10.77;2.45;;;;;;;-1.33;100.00;99786.63;5079544;28;20023;-75
2021/12/09 08:15:07;;;;;;;8.05;2.45;;;;;;;-1.26;100.00;99784.59;5078280;28;20073;-75
2021/12/09 08:20:03;;;;;;;13.02;2.88;;;;;;;-1.21;100.00;99782.00;5095763;28;20084;-75
2021/12/09 08:22:28;;;;;;;11.18;2.83;;;;;;;-1.18;100.00;99787.81;5039552;28;20051;-75
2021/12/09 08:24:55;;;;;;;10.20;3.40;;;;;;;-1.13;100.00;99796.13;5064715;28;20547;-76
2021/12/09 08:27:23;;;;;;;11.88;3.28;;;;;;;-1.10;100.00;99794.81;5079431;28;20039;-75
2021/12/09 08:29:48;;;;;;;13.30;3.80;;;;;;;-1.03;100.00;99795.56;5056273;28;20409;-75
2021/12/09 08:32:14;;;;;;;9.82;3.20;;;;;;;-1.04;100.00;99799.31;5074313;28;20679;-75
2021/12/09 08:34:39;;;;;;;13.30;3.03;;;;;;;-1.02;100.00;99796.38;5096421;28;20066;-75
2021/12/09 08:37:05;;;;;;;11.35;3.30;;;;;;;-1.00;100.00;99791.53;5060930;28;20028;-76
2021/12/09 08:39:30;;;;;;;13.43;3.67;;;;;;;-0.98;100.00;99781.19;5074377;28;20447;-71
2021/12/09 08:41:56;;;;;;;11.52;3.30;;;;;;;-0.98;100.00;99779.31;5095396;28;20388;-74
2021/12/09 08:44:21;;;;;;;15.05;3.63;;;;;;;-0.96;100.00;99785.34;5065028;28;20069;-77
2021/12/09 08:46:47;;;;;;;10.88;3.55;;;;;;;-0.95;100.00;99791.63;5069068;28;20500;-76
2021/12/09 08:49:12;;;;;;;9.27;3.17;;;;;;;-0.92;100.00;99804.78;5067017;28;20040;-76
2021/12/09 08:51:38;;;;;;;9.05;2.90;;;;;;;-0.90;100.00;99794.47;5080272;28;20028;-76
2021/12/09 08:54:04;;;;;;;9.60;3.08;;;;;;;-0.90;100.00;99798.03;5086066;28;20032;-77
2021/12/09 08:56:29;;;;;;;7.75;3.17;;;;;;;-0.87;100.00;99799.47;5083614;28;20036;-77
2021/12/09 08:58:55;;;;;;;11.95;3.38;;;;;;;-0.84;100.00;99792.69;5072176;28;20024;-77
2021/12/09 09:01:20;;;;;;;10.45;3.53;;;;;;;-0.82;100.00;99790.59;5077371;28;20028;-77
2021/12/09 09:03:45;;;;;;;;;;;;;;;-0.81;100.00;99786.78;5095306;28;20036;-77
2021/12/09 09:06:11;;;;;;;;;;;;;;;-0.79;100.00;99779.19;5081380;28;19912;-77
2021/12/09 09:08:36;;;;;;;;;;;;;;;-0.78;100.00;99784.44;5097469;28;19924;-77
2021/12/09 09:11:02;;;;;;;8.88;3.00;;;;;;;-0.73;100.00;99786.41;5083053;28;19920;-77
2021/12/09 09:13:27;;;;;;;10.77;2.72;;;;;;;-0.73;100.00;99787.25;5086595;28;20035;-76
2021/12/09 09:15:53;;;;;;;9.57;3.17;;;;;;;-0.71;100.00;99793.31;5083119;28;20036;-77
2021/12/09 09:18:19;;;;;;;12.48;3.60;;;;;;;-0.70;100.00;99802.31;5074443;28;20063;-77
2021/12/09 09:20:44;;;;;;;11.97;4.17;;;;;;;-0.65;100.00;99807.06;5075971;28;20475;-77
2021/12/09 09:23:11;;;;;;;9.02;3.20;;;;;;;-0.64;100.00;99804.09;5074957;28;20276;-77
2021/12/09 09:25:37;;;;;;;11.90;3.58;;;;;;;-0.59;100.00;99806.09;5053830;28;20066;-77
2021/12/09 09:28:02;;;;;;;10.93;3.45;;;;;;;-0.57;100.00;99803.97;5096108;28;20067;-77
2021/12/09 09:30:35;;;;;;;13.63;3.50;;;;;;;-0.52;100.00;99812.28;5081692;28;20080;-76
2021/12/09 09:33:00;;;;;;;11.43;3.83;;;;;;;-0.50;100.00;99812.88;5078150;28;20031;-77
2021/12/09 09:35:26;;;;;;;10.40;3.53;;;;;;;-0.47;100.00;99809.66;5076639;28;20401;-77
2021/12/09 09:37:51;;;;;;;12.20;3.60;;;;;;;-0.42;100.00;99807.03;5099504;28;20753;-77
2021/12/09 09:40:23;;;;;;;9.93;3.77;;;;;;;-0.34;100.00;99805.84;5078752;28;20376;-76
2021/12/09 09:43:13;;;;;;;10.23;3.22;;;;;;;-0.28;100.00;99805.72;5104671;28;20036;-76
2021/12/09 09:45:39;;;;;;;10.50;3.22;;;;;;;-0.20;100.00;99807.22;5090871;28;20110;-77
2021/12/09 09:48:07;;;;;;;8.30;3.17;;;;;;;-0.11;100.00;99815.88;5074046;28;20434;-77
2021/12/09 09:50:33;;;;;;;10.93;4.23;;;;;;;-0.05;100.00;99812.22;5101849;28;20391;-77
2021/12/09 09:52:59;;;;;;;11.13;4.07;;;;;;;0.02;100.00;99812.88;5080172;28;20391;-77
2021/12/09 09:55:24;;;;;;;12.35;3.92;;;;;;;0.10;100.00;99812.50;5082169;28;20414;-77
2021/12/09 09:57:50;;;;;;;11.80;3.87;;;;;;;0.19;100.00;99810.22;5082511;28;20728;-77
2021/12/09 10:00:16;;;;;;;9.45;3.55;;;;;;;0.28;100.00;99816.13;5055091;28;20376;-77
2021/12/09 10:02:42;;;;;;;10.88;4.07;;;;;;;0.35;100.00;99817.63;5055790;28;20475;-77
2021/12/09 10:05:08;;;;;;;11.95;4.45;;;;;;;0.44;100.00;99820.81;5071125;28;20881;-77
2021/12/09 10:07:35;;;;;;;13.65;5.03;;;;;;;0.53;100.00;99808.44;5093065;28;20449;-78
2021/12/09 10:10:01;;;;;;;12.48;4.50;;;;;;;0.62;100.00;99803.38;5105031;28;20042;-74
2021/12/09 10:12:26;;;;;;;11.00;4.30;;;;;;;0.71;100.00;99793.69;5080169;28;20033;-73
2021/12/09 10:14:53;;;;;;;14.13;4.50;;;;;;;0.79;100.00;99795.22;5086840;28;20043;-73
2021/12/09 10:17:20;;;;;;;12.70;4.85;;;;;;;0.86;100.00;99795.84;5080748;28;20030;-73
2021/12/09 10:20:00;;;;;;;12.30;5.55;;;;;;;0.97;100.00;99791.41;5062691;28;20791;-73
2021/12/09 10:22:32;;;;;;;14.15;5.72;;;;;;;1.04;100.00;99779.22;5101689;28;20038;-73
2021/12/09 10:24:58;;;;;;;14.75;5.82;;;;;;;1.15;100.00;99782.13;5100171;28;20039;-73
2021/12/09 10:27:29;;;;;;;17.27;5.78;;;;;;;1.23;100.00;99777.06;5103132;28;20751;-73
2021/12/09 10:30:00;;;;;;;15.45;6.45;;;;;;;1.31;100.00;99781.28;5096224;28;20376;-73
2021/12/09 10:32:30;;;;;;;14.60;6.35;;;;;;;1.40;100.00;99779.75;5102852;28;20373;-73
2021/12/09 10:34:56;;;;;;;18.35;6.90;;;;;;;1.52;100.00;99774.19;5072205;28;20036;-73
2021/12/09 10:37:22;;;;;;;17.05;6.07;;;;;;;1.61;100.00;99769.09;5100614;28;20024;-73
2021/12/09 10:39:54;;;;;;;16.85;6.43;;;;;;;1.68;100.00;99756.88;5104957;28;20028;-73
2021/12/09 10:42:26;;;;;;;15.10;5.90;;;;;;;1.76;100.00;99752.88;5107405;28;20031;-73
2021/12/09 10:44:52;;;;;;;15.40;6.38;;;;;;;1.81;100.00;99752.09;5107064;28;20039;-73
2021/12/09 10:47:34;;;;;;;15.93;5.90;;;;;;;1.89;100.00;99755.22;5097587;28;20032;-73
2021/12/09 10:50:10;;;;;;;22.08;7.00;;;;;;;1.98;100.00;99752.88;5099808;28;20395;-73
2021/12/09 10:52:41;;;;;;;18.17;6.00;;;;;;;2.04;100.00;99753.78;5078331;28;20028;-73
2021/12/09 10:55:09;;;;;;;20.15;6.65;;;;;;;2.09;100.00;99757.38;5105905;28;20039;-73
2021/12/09 10:57:34;;;;;;;17.48;6.05;;;;;;;2.15;100.00;99764.56;5104089;28;20618;-73
2021/12/09 11:00:28;;;;;;;19.50;7.07;;;;;;;2.25;100.00;99758.38;5059951;28;20435;-73
2021/12/09 11:03:07;;;;;;;18.40;6.25;;;;;;;2.33;100.00;99749.69;5091834;28;20036;-73
2021/12/09 11:05:35;;;;;;;17.35;6.90;;;;;;;2.39;100.00;99748.66;5085251;28;20035;-73
2021/12/09 11:08:27;;;;;;;23.73;7.32;;;;;;;2.45;100.00;99753.13;5080731;28;20024;-73
2021/12/09 11:10:57;;;;;;;;;;;;;;;2.52;100.00;99746.59;5081357;28;20043;-73
2021/12/09 11:13:23;;;;;;;17.45;6.47;;;;;;;2.57;100.00;99735.69;5109109;28;19914;-77
2021/12/09 11:15:50;;;;;;;19.58;6.57;;;;;;;2.61;100.00;99734.06;5059753;28;20041;-77
2021/12/09 11:18:35;;;;;;;19.35;6.40;;;;;;;2.66;100.00;99731.38;5078933;28;20028;-77
2021/12/09 11:21:03;;;;;;;17.55;6.20;;;;;;;2.71;100.00;99712.22;5096606;28;20032;-78
2021/12/09 11:23:33;;;;;;;18.75;6.05;;;;;;;2.74;100.00;99710.88;5099733;28;20031;-76
2021/12/09 11:26:25;;;;;;;15.95;5.75;;;;;;;2.81;100.00;99712.28;5093767;28;20025;-76
2021/12/09 11:28:59;;;;;;;16.65;6.10;;;;;;;2.87;100.00;99700.28;5075724;28;20051;-76
2021/12/09 11:31:28;;;;;;;14.30;5.28;;;;;;;2.91;100.00;99701.41;5063733;28;20070;-76